Time;durP1;ratioP1;P1;durP2;ratioP2;P2;SDS_P1;SDS_P2;PMS_P1;PMS_P2;Temp;Humidity;BMP_temperature;BMP_pressure;BME280_temperature;BME280_humidity;BME280_pressure;Samples;Min_cycle;Max_cycle;Signal;HPM_P1;HPM_P2
2022/07/03 00:02:26;;;;;;;8.77;7.88;;;;;;;20.53;86.82;97372.44;5064638;28;20048;-64
2022/07/03 00:04:53;;;;;;;12.23;7.82;;;;;;;20.48;87.62;97372.91;5063406;28;20056;-64
2022/07/03 00:07:20;;;;;;;9.23;7.70;;;;;;;20.10;87.47;97309.59;5064520;28;20048;-65
2022/07/03 00:09:46;;;;;;;9.68;7.95;;;;;;;19.40;88.18;97211.06;5202513;22;20053;-74
2022/07/03 00:12:13;;;;;;;15.25;9.48;;;;;;;20.38;88.29;97354.16;5039138;28;20613;-65
2022/07/03 00:14:40;;;;;;;9.57;7.50;;;;;;;20.05;87.96;97301.63;5049930;28;20067;-67
2022/07/03 00:17:07;;;;;;;12.63;7.40;;;;;;;20.46;87.89;97355.66;5043007;28;20064;-65
2022/07/03 00:19:34;;;;;;;10.05;7.55;;;;;;;20.42;87.50;97349.28;5054746;28;20055;-75
2022/07/03 00:22:08;;;;;;;10.77;7.88;;;;;;;20.25;88.37;97351.16;5063301;28;20052;-73
2022/07/03 00:24:47;;;;;;;10.80;8.52;;;;;;;20.11;89.56;97344.94;5061590;28;20517;-73
2022/07/03 00:27:16;;;;;;;15.35;9.88;;;;;;;19.51;88.75;97241.81;5063056;28;20067;-66
2022/07/03 00:29:44;;;;;;;15.52;10.38;;;;;;;19.93;88.62;97288.97;5062870;28;20057;-74
2022/07/03 00:32:13;;;;;;;12.85;9.43;;;;;;;19.49;88.25;97236.63;5050405;28;20053;-66
2022/07/03 00:34:42;;;;;;;9.05;8.00;;;;;;;19.91;88.43;97301.84;5044169;28;20394;-74
2022/07/03 00:37:10;;;;;;;10.55;7.82;;;;;;;19.81;88.91;97277.50;5042680;28;20056;-64
2022/07/03 00:39:40;;;;;;;10.68;7.63;;;;;;;20.24;89.03;97332.69;5042654;28;20057;-64
2022/07/03 00:42:08;;;;;;;10.95;7.50;;;;;;;20.28;88.15;97335.47;5042798;28;20053;-64
2022/07/03 00:44:44;;;;;;;7.53;6.72;;;;;;;20.25;87.56;97331.47;5042745;28;20061;-75
2022/07/03 00:47:12;;;;;;;9.15;7.25;;;;;;;19.76;88.15;97273.16;5049710;28;20060;-75
2022/07/03 00:49:40;;;;;;;8.70;7.43;;;;;;;19.99;89.14;97308.97;5049371;28;20640;-75
2022/07/03 00:52:11;;;;;;;9.20;7.20;;;;;;;19.61;88.96;97288.66;5044663;28;20057;-64
2022/07/03 00:54:44;;;;;;;11.05;7.55;;;;;;;19.66;89.62;97251.66;5044836;28;20048;-75
2022/07/03 00:57:16;;;;;;;8.77;7.45;;;;;;;19.95;89.76;97292.13;5043102;28;20053;-63
2022/07/03 00:59:43;;;;;;;9.23;7.68;;;;;;;20.23;89.12;97330.31;5044187;28;20519;-65
2022/07/03 01:02:34;;;;;;;10.48;7.22;;;;;;;19.98;89.25;97284.88;5045613;28;20076;-64
2022/07/03 01:05:19;;;;;;;12.20;8.00;;;;;;;20.19;88.69;97312.69;5047656;28;20084;-66
2022/07/03 01:08:19;;;;;;;13.05;8.00;;;;;;;20.16;88.91;97319.16;5052131;28;20052;-76
2022/07/03 01:11:14;;;;;;;11.00;7.55;;;;;;;20.06;90.10;97312.44;5066923;28;20361;-67
2022/07/03 01:14:03;;;;;;;8.80;7.85;;;;;;;19.99;89.59;97292.09;5071655;28;20060;-67
2022/07/03 01:16:58;;;;;;;9.23;7.32;;;;;;;20.04;89.67;97309.28;5066800;28;20053;-73
2022/07/03 01:19:43;;;;;;;8.77;7.25;;;;;;;20.12;88.83;97312.78;5067809;28;20053;-76
2022/07/03 01:22:37;;;;;;;9.98;7.82;;;;;;;20.15;88.76;97314.78;5054507;28;20061;-65
2022/07/03 01:25:16;;;;;;;9.93;7.75;;;;;;;20.02;89.14;97313.72;5067106;28;20052;-66
2022/07/03 01:27:49;;;;;;;8.90;7.95;;;;;;;18.91;89.71;97127.53;5070895;28;20052;-73
2022/07/03 01:30:18;;;;;;;;;;;;;;;20.11;89.71;97309.16;5068943;28;20521;-77
2022/07/03 01:32:51;;;;;;;8.50;7.60;;;;;;;18.88;90.79;97145.22;5073289;28;19939;-66
2022/07/03 01:35:22;;;;;;;11.63;7.47;;;;;;;19.76;92.01;97323.00;5074431;28;20052;-75
2022/07/03 01:37:50;;;;;;;11.48;8.93;;;;;;;20.02;90.67;97314.53;5071555;28;20052;-78
2022/07/03 01:40:18;;;;;;;16.98;8.80;;;;;;;20.09;90.87;97319.25;5072569;28;20056;-76
2022/07/03 01:42:45;;;;;;;10.45;9.02;;;;;;;20.15;90.11;97314.78;5069719;28;20067;-74
2022/07/03 01:45:14;;;;;;;9.85;8.05;;;;;;;19.91;90.45;97265.31;5071790;28;20048;-66
2022/07/03 01:47:45;;;;;;;13.32;8.50;;;;;;;19.91;88.87;97263.28;5075311;28;20048;-65
2022/07/03 01:50:15;;;;;;;12.40;8.07;;;;;;;20.40;88.08;97307.50;5073967;28;20060;-75
2022/07/03 01:52:44;;;;;;;14.00;9.35;;;;;;;20.37;88.66;97313.19;5075954;28;20053;-64
2022/07/03 01:55:14;;;;;;;11.27;7.85;;;;;;;20.54;87.20;97317.72;5074195;28;20052;-76
2022/07/03 01:57:46;;;;;;;10.75;7.72;;;;;;;20.36;86.96;97283.47;5069385;28;20056;-66
2022/07/03 02:00:19;;;;;;;8.77;7.63;;;;;;;19.61;86.51;97167.00;5072164;28;20044;-76
2022/07/03 02:03:06;;;;;;;10.45;7.13;;;;;;;20.51;86.74;97308.13;5069597;28;20434;-75
2022/07/03 02:05:44;;;;;;;9.73;8.05;;;;;;;20.52;86.52;97303.25;5067111;28;20052;-66
2022/07/03 02:08:32;;;;;;;10.13;6.95;;;;;;;20.49;86.80;97304.13;5059907;28;20067;-65
2022/07/03 02:11:16;;;;;;;11.35;7.25;;;;;;;20.35;87.34;97298.75;5048036;28;20075;-65
2022/07/03 02:14:20;;;;;;;10.38;7.15;;;;;;;20.39;87.37;97297.47;5047094;28;20057;-65
2022/07/03 02:17:08;;;;;;;9.68;7.55;;;;;;;20.32;87.59;97300.41;5046801;28;20132;-65
2022/07/03 02:19:49;;;;;;;9.80;8.07;;;;;;;20.21;88.32;97294.16;5049677;28;20560;-65
2022/07/03 02:22:19;;;;;;;11.07;7.43;;;;;;;19.86;88.41;97246.09;5050276;28;20057;-74
2022/07/03 02:24:47;;;;;;;9.50;8.00;;;;;;;20.09;88.50;97279.88;5049379;28;20080;-64
2022/07/03 02:27:20;;;;;;;10.70;8.13;;;;;;;20.10;88.11;97320.84;5048856;28;20060;-65
2022/07/03 02:29:50;;;;;;;9.75;7.45;;;;;;;19.50;89.01;97221.38;5046523;28;20056;-64
2022/07/03 02:32:22;;;;;;;10.80;7.63;;;;;;;19.94;89.85;97303.81;5049086;28;20055;-64
2022/07/03 02:35:05;;;;;;;12.68;7.80;;;;;;;19.83;90.75;97292.75;5053858;28;20060;-76
2022/07/03 02:37:47;;;;;;;11.55;7.68;;;;;;;19.26;90.86;97188.78;5052756;28;20057;-66
2022/07/03 02:40:25;;;;;;;12.85;7.95;;;;;;;19.82;90.54;97270.69;5048199;28;20056;-73
2022/07/03 02:43:00;;;;;;;10.38;8.07;;;;;;;19.93;90.82;97288.19;5054014;28;20060;-75
2022/07/03 02:45:38;;;;;;;12.35;7.85;;;;;;;19.95;90.51;97297.00;5052461;28;20107;-74
2022/07/03 02:48:12;;;;;;;10.63;7.85;;;;;;;19.19;89.67;97169.22;5052178;28;20063;-75
2022/07/03 02:50:43;;;;;;;10.75;7.90;;;;;;;20.11;89.67;97294.28;5051890;28;20053;-74
2022/07/03 02:53:19;;;;;;;11.73;7.82;;;;;;;20.13;90.25;97308.72;5055008;28;20049;-77
2022/07/03 02:55:46;;;;;;;9.60;7.78;;;;;;;19.98;90.23;97279.25;5047567;28;20075;-65
2022/07/03 02:58:39;;;;;;;8.85;7.65;;;;;;;19.91;88.68;97234.38;5048502;28;20045;-75
2022/07/03 03:01:22;;;;;;;10.68;7.65;;;;;;;20.42;86.79;97293.78;5046937;28;20064;-65
2022/07/03 03:04:13;;;;;;;10.90;8.45;;;;;;;20.51;86.38;97296.06;5046752;28;20049;-63
2022/07/03 03:06:47;;;;;;;9.55;8.05;;;;;;;20.28;86.35;97260.28;5045882;28;20140;-77
2022/07/03 03:09:21;;;;;;;11.05;8.68;;;;;;;20.18;86.13;97278.16;5060238;28;20523;-75
2022/07/03 03:11:48;;;;;;;12.63;8.93;;;;;;;20.15;86.48;97250.06;5065268;28;20059;-66
2022/07/03 03:14:20;;;;;;;10.07;8.55;;;;;;;20.55;85.93;97302.44;5064360;28;20075;-75
2022/07/03 03:16:53;;;;;;;10.88;8.52;;;;;;;20.35;86.71;97301.56;5065326;28;20056;-65
2022/07/03 03:19:24;;;;;;;17.95;7.70;;;;;;;20.57;86.16;97300.75;5063858;28;20052;-75
2022/07/03 03:22:10;;;;;;;9.95;8.20;;;;;;;20.56;85.38;97301.19;5065349;28;20127;-76
2022/07/03 03:24:37;;;;;;;11.02;7.78;;;;;;;20.49;85.83;97309.75;5047714;28;20060;-76
2022/07/03 03:27:05;;;;;;;9.88;8.18;;;;;;;20.52;86.22;97303.25;5065600;28;20052;-76
2022/07/03 03:29:32;;;;;;;9.50;7.40;;;;;;;20.05;86.15;97217.25;5065954;28;20497;-66
2022/07/03 03:31:58;;;;;;;11.10;7.65;;;;;;;19.88;85.71;97201.47;5067743;28;20059;-66
2022/07/03 03:34:31;;;;;;;13.30;7.32;;;;;;;20.18;86.02;97240.78;5066684;28;20061;-73
2022/07/03 03:36:58;;;;;;;8.13;7.25;;;;;;;20.58;85.62;97267.78;5069252;28;20052;-75
2022/07/03 03:39:26;;;;;;;11.38;7.72;;;;;;;20.53;85.93;97265.47;5069626;28;20049;-66
2022/07/03 03:41:53;;;;;;;10.13;7.50;;;;;;;20.56;84.53;97237.25;5065109;28;20048;-66
2022/07/03 03:44:19;;;;;;;13.00;8.00;;;;;;;20.98;84.05;97294.00;5068238;28;20052;-68
2022/07/03 03:46:46;;;;;;;14.85;8.23;;;;;;;21.08;83.15;97296.59;5068253;28;20109;-68
2022/07/03 03:49:13;;;;;;;10.30;7.78;;;;;;;20.98;82.63;97286.34;5065902;28;20063;-66
2022/07/03 03:51:41;;;;;;;10.60;8.07;;;;;;;21.11;82.73;97286.47;5067619;28;20048;-63
2022/07/03 03:54:07;;;;;;;10.10;7.53;;;;;;;21.28;82.54;97300.19;5065979;28;20540;-65
2022/07/03 03:56:34;;;;;;;8.70;7.30;;;;;;;21.26;82.08;97305.47;5065312;28;20063;-64
2022/07/03 03:59:01;;;;;;;8.30;7.35;;;;;;;21.19;82.49;97297.19;5063635;28;20473;-65
2022/07/03 04:01:27;;;;;;;8.82;7.45;;;;;;;21.28;82.31;97302.22;5065912;28;20095;-77
2022/07/03 04:03:54;;;;;;;14.63;7.60;;;;;;;20.57;81.25;97164.84;5066559;28;20080;-64
2022/07/03 04:06:21;;;;;;;9.30;6.90;;;;;;;19.52;81.29;97005.34;5065776;28;20098;-75
2022/07/03 04:08:48;;;;;;;8.43;7.30;;;;;;;21.58;80.81;97304.78;5051565;28;20076;-66
2022/07/03 04:11:15;;;;;;;10.75;7.03;;;;;;;21.08;80.02;97217.72;5044113;28;20455;-65
2022/07/03 04:13:41;;;;;;;9.57;7.40;;;;;;;21.76;79.85;97300.38;5046677;28;20048;-65
2022/07/03 04:16:08;;;;;;;8.82;7.32;;;;;;;21.38;79.82;97262.56;5047891;28;20053;-77
2022/07/03 04:18:35;;;;;;;10.13;7.30;;;;;;;21.34;79.33;97218.78;5046699;28;20057;-64
2022/07/03 04:21:02;;;;;;;12.48;7.38;;;;;;;21.99;78.98;97300.25;5045596;28;20059;-66
2022/07/03 04:23:29;;;;;;;11.80;7.25;;;;;;;21.80;78.11;97287.00;5044520;28;20502;-64
2022/07/03 04:25:55;;;;;;;10.73;7.57;;;;;;;21.65;77.53;97201.13;5045581;28;20053;-75
2022/07/03 04:28:22;;;;;;;11.55;7.50;;;;;;;22.20;76.47;97271.50;5045242;28;20053;-66
2022/07/03 04:30:49;;;;;;;10.85;7.80;;;;;;;22.54;75.34;97278.75;5046275;28;20078;-64
2022/07/03 04:33:16;;;;;;;10.35;8.23;;;;;;;22.46;74.26;97232.94;5045308;28;20506;-65
2022/07/03 04:35:43;;;;;;;16.13;10.63;;;;;;;22.98;73.86;97297.72;5045048;28;20060;-67
2022/07/03 04:38:09;;;;;;;12.65;8.20;;;;;;;22.83;73.07;97251.31;5045404;28;20053;-64
2022/07/03 04:40:36;;;;;;;9.57;7.88;;;;;;;22.88;72.56;97231.78;5043461;28;20052;-75
2022/07/03 04:43:03;;;;;;;8.90;6.95;;;;;;;23.27;72.85;97304.19;5043109;28;20049;-63
2022/07/03 04:45:30;;;;;;;9.35;6.97;;;;;;;23.34;71.87;97282.16;5044440;28;20057;-65
2022/07/03 04:47:56;;;;;;;8.18;7.25;;;;;;;23.56;71.82;97300.09;5043611;28;20067;-77
2022/07/03 04:50:23;;;;;;;9.02;7.47;;;;;;;23.34;71.26;97247.44;5044061;28;20049;-77
2022/07/03 04:52:50;;;;;;;9.20;7.47;;;;;;;22.80;71.59;97167.44;5043305;28;20056;-74
2022/07/03 04:55:17;;;;;;;10.43;7.78;;;;;;;23.38;72.71;97250.94;5044251;28;20164;-65
2022/07/03 04:57:43;;;;;;;10.20;8.48;;;;;;;23.75;72.32;97301.13;5044349;28;20057;-75
2022/07/03 05:00:11;;;;;;;11.50;7.85;;;;;;;23.97;70.94;97302.06;5045017;28;20049;-80
2022/07/03 05:02:37;;;;;;;9.23;8.10;;;;;;;24.08;70.94;97301.72;5051998;28;20064;-77
2022/07/03 05:05:05;;;;;;;9.52;8.13;;;;;;;23.87;69.85;97252.22;5049189;28;20472;-64
2022/07/03 05:07:31;;;;;;;11.23;8.35;;;;;;;24.32;70.00;97289.59;5050272;28;20095;-63
2022/07/03 05:09:58;;;;;;;8.73;7.82;;;;;;;24.44;69.38;97268.97;5066997;28;20048;-78
2022/07/03 05:12:25;;;;;;;8.30;7.43;;;;;;;24.72;69.57;97285.00;5069444;28;20056;-78
2022/07/03 05:14:52;;;;;;;11.57;8.45;;;;;;;24.69;69.51;97294.44;5069539;28;20048;-66
2022/07/03 05:17:19;;;;;;;10.05;7.88;;;;;;;24.85;68.15;97288.59;5072123;28;20049;-75
2022/07/03 05:19:46;;;;;;;10.07;8.25;;;;;;;24.40;68.39;97222.97;5068513;28;20438;-75
2022/07/03 05:22:13;;;;;;;10.60;7.90;;;;;;;24.96;68.00;97283.34;5068698;28;20059;-65
2022/07/03 05:24:40;;;;;;;10.63;8.23;;;;;;;25.14;67.62;97286.34;5068193;28;20053;-64
2022/07/03 05:27:07;;;;;;;10.13;7.70;;;;;;;25.02;67.37;97247.47;5069584;28;20434;-77
2022/07/03 05:29:33;;;;;;;10.15;7.85;;;;;;;25.57;66.08;97287.59;5066417;28;20943;-77
2022/07/03 05:32:06;;;;;;;9.40;8.30;;;;;;;25.63;65.60;97285.75;5068863;28;20054;-76
2022/07/03 05:34:33;;;;;;;10.25;8.43;;;;;;;25.41;65.51;97250.94;5068011;28;20418;-63
2022/07/03 05:36:59;;;;;;;11.40;8.27;;;;;;;25.79;65.19;97274.16;5067801;28;20149;-65
2022/07/03 05:39:32;;;;;;;9.40;7.75;;;;;;;25.50;65.46;97231.16;5068133;28;20558;-76
2022/07/03 05:41:59;;;;;;;9.95;8.32;;;;;;;25.88;65.42;97291.25;5066122;28;20055;-65
2022/07/03 05:44:26;;;;;;;11.02;8.77;;;;;;;26.04;65.25;97291.03;5065826;28;20052;-79
2022/07/03 05:46:53;;;;;;;8.18;7.38;;;;;;;25.92;64.83;97240.81;5067670;28;20052;-64
2022/07/03 05:49:20;;;;;;;11.55;8.48;;;;;;;26.20;64.99;97279.44;5066277;28;20064;-79
2022/07/03 05:51:46;;;;;;;9.07;7.50;;;;;;;26.21;64.49;97252.59;5067271;28;20075;-78
2022/07/03 05:54:13;;;;;;;9.95;8.05;;;;;;;26.29;65.07;97268.09;5067275;28;20056;-67
2022/07/03 05:56:40;;;;;;;11.68;7.80;;;;;;;26.09;64.57;97196.72;5068004;28;20080;-77
2022/07/03 05:59:07;;;;;;;10.20;7.38;;;;;;;26.47;64.21;97234.03;5067647;28;20049;-77
2022/07/03 06:01:33;;;;;;;10.65;7.35;;;;;;;26.33;63.41;97194.88;5067500;28;20063;-79
2022/07/03 06:04:00;;;;;;;8.70;7.00;;;;;;;27.00;62.21;97286.56;5066896;28;20082;-80
2022/07/03 06:06:27;;;;;;;9.05;6.85;;;;;;;26.52;61.72;97185.13;5067413;28;20128;-77
2022/07/03 06:08:54;;;;;;;8.68;7.00;;;;;;;26.57;61.14;97242.09;5056419;28;20114;-78
2022/07/03 06:11:21;;;;;;;8.95;7.45;;;;;;;26.82;61.37;97254.50;5048301;28;20061;-64
2022/07/03 06:13:47;;;;;;;8.50;6.88;;;;;;;27.17;62.00;97282.16;5047111;28;20056;-79
2022/07/03 06:16:14;;;;;;;8.80;7.05;;;;;;;27.30;60.73;97279.19;5045110;28;20067;-77
2022/07/03 06:18:41;;;;;;;7.53;6.82;;;;;;;26.87;59.03;97197.00;5047593;28;20081;-75
2022/07/03 06:21:08;;;;;;;8.07;7.25;;;;;;;27.50;58.04;97283.13;5046625;28;20064;-64
2022/07/03 06:23:34;;;;;;;8.13;7.10;;;;;;;27.34;58.12;97248.50;5047112;28;20053;-76
2022/07/03 06:26:11;;;;;;;8.52;6.88;;;;;;;27.73;57.19;97279.56;5046574;28;20584;-79
2022/07/03 06:28:38;;;;;;;11.45;6.53;;;;;;;27.84;55.81;97277.00;5046680;28;20053;-76
2022/07/03 06:31:05;;;;;;;7.72;6.88;;;;;;;27.87;55.45;97276.03;5046652;28;20079;-64
2022/07/03 06:33:32;;;;;;;8.00;7.00;;;;;;;28.06;55.00;97271.09;5046525;28;20049;-77
2022/07/03 06:35:59;;;;;;;7.35;6.53;;;;;;;26.32;55.69;96963.22;5044934;28;20056;-66
2022/07/03 06:38:25;;;;;;;11.57;8.82;;;;;;;27.97;55.23;97212.13;5045151;28;20135;-64
2022/07/03 06:40:52;;;;;;;7.47;6.28;;;;;;;27.47;55.12;97181.59;5046345;28;20060;-64
2022/07/03 06:43:19;;;;;;;8.75;6.63;;;;;;;27.69;55.15;97210.63;5045035;28;20439;-66
2022/07/03 06:45:45;;;;;;;7.45;6.82;;;;;;;28.32;55.21;97262.91;5046301;28;20052;-64
2022/07/03 06:48:12;;;;;;;8.13;6.90;;;;;;;28.31;53.54;97238.53;5046266;28;20064;-77
2022/07/03 06:50:39;;;;;;;9.43;7.47;;;;;;;28.57;52.90;97265.34;5044946;28;20056;-79
2022/07/03 06:53:06;;;;;;;7.93;7.13;;;;;;;28.36;52.36;97243.59;5047561;28;20064;-63
2022/07/03 06:55:33;;;;;;;8.40;7.25;;;;;;;28.81;52.05;97277.53;5046102;28;20044;-72
2022/07/03 06:58:00;;;;;;;7.47;5.97;;;;;;;28.50;49.75;97192.34;5046304;28;20063;-63
2022/07/03 07:00:26;;;;;;;8.02;6.03;;;;;;;29.25;47.76;97252.81;5045314;28;20053;-63
2022/07/03 07:02:53;;;;;;;8.68;6.85;;;;;;;29.26;46.68;97214.44;5045821;28;20513;-63
2022/07/03 07:05:25;;;;;;;8.35;6.75;;;;;;;29.74;46.22;97255.81;5046042;28;20551;-63
2022/07/03 07:07:52;;;;;;;7.40;5.85;;;;;;;29.85;46.02;97255.22;5048794;28;20052;-72
2022/07/03 07:10:19;;;;;;;7.15;6.45;;;;;;;29.81;45.46;97255.44;5063423;28;20060;-67
2022/07/03 07:12:45;;;;;;;6.75;6.15;;;;;;;30.05;45.75;97250.38;5063838;28;20048;-66
2022/07/03 07:15:12;;;;;;;13.38;6.15;;;;;;;30.33;44.84;97251.66;5065775;28;20048;-75
2022/07/03 07:17:39;;;;;;;8.90;5.57;;;;;;;30.57;40.33;97266.56;5065304;28;20608;-63
2022/07/03 07:20:06;;;;;;;5.80;5.30;;;;;;;29.97;39.31;97134.91;5064059;28;20067;-64
2022/07/03 07:22:33;;;;;;;5.88;5.38;;;;;;;30.93;39.75;97243.16;5065883;28;20052;-66
2022/07/03 07:24:59;;;;;;;6.38;5.75;;;;;;;30.98;39.34;97249.44;5065711;28;20052;-75
2022/07/03 07:27:26;;;;;;;6.80;6.20;;;;;;;30.93;41.08;97254.63;5065529;28;20545;-63
2022/07/03 07:29:53;;;;;;;7.70;5.20;;;;;;;31.05;39.28;97249.03;5065109;28;20059;-65
2022/07/03 07:32:20;;;;;;;7.50;5.88;;;;;;;30.54;39.73;97169.53;5064948;28;20048;-66
2022/07/03 07:34:46;;;;;;;7.82;5.43;;;;;;;31.10;39.39;97234.78;5065219;28;20139;-76
2022/07/03 07:37:13;;;;;;;6.50;5.30;;;;;;;31.27;38.31;97232.13;5063638;28;20051;-64
2022/07/03 07:39:40;;;;;;;5.93;5.38;;;;;;;30.72;38.27;97146.34;5064957;28;20048;-76
2022/07/03 07:42:07;;;;;;;44.08;18.83;;;;;;;31.11;38.60;97213.44;5063535;28;20094;-76
2022/07/03 07:44:34;;;;;;;7.88;5.38;;;;;;;31.41;36.84;97248.44;5063429;28;20113;-77
2022/07/03 07:47:01;;;;;;;13.25;7.18;;;;;;;31.27;38.68;97237.84;5064632;28;20057;-75
2022/07/03 07:49:27;;;;;;;10.02;6.18;;;;;;;29.81;37.37;96983.28;5063217;28;20060;-77
2022/07/03 07:51:54;;;;;;;7.65;6.65;;;;;;;31.48;37.85;97260.22;5064847;28;20056;-78
2022/07/03 07:54:21;;;;;;;7.55;6.70;;;;;;;31.48;38.68;97259.44;5063033;28;20064;-64
2022/07/03 07:56:48;;;;;;;13.95;7.85;;;;;;;30.90;38.44;97192.63;5063271;28;20048;-64
2022/07/03 07:59:15;;;;;;;17.52;9.23;;;;;;;31.31;39.28;97232.69;5063499;28;20067;-76
2022/07/03 08:07:12;;;;;;;5.57;5.07;;;;;;;30.65;39.22;97239.09;5064715;28;20072;-65
2022/07/03 08:09:39;;;;;;;7.07;5.93;;;;;;;30.48;38.46;97266.69;5047206;28;20053;-66
2022/07/03 08:12:06;;;;;;;5.88;5.07;;;;;;;30.09;39.39;97265.28;5044372;28;20084;-67
2022/07/03 08:14:32;;;;;;;9.77;5.75;;;;;;;30.67;39.35;97268.00;5035850;28;20060;-65
2022/07/03 08:16:59;;;;;;;7.68;6.22;;;;;;;30.70;38.85;97264.16;5045002;28;20041;-66
2022/07/03 08:19:26;;;;;;;6.63;5.93;;;;;;;30.61;38.34;97214.84;5057039;28;20521;-75
2022/07/03 08:21:53;;;;;;;8.05;6.18;;;;;;;31.06;38.12;97210.53;5042726;28;20060;-65
2022/07/03 08:24:19;;;;;;;8.95;5.97;;;;;;;31.13;37.97;97169.97;5044847;28;20568;-74
2022/07/03 08:26:46;;;;;;;6.50;5.85;;;;;;;31.04;38.16;97270.34;5042594;28;20522;-65
2022/07/03 08:29:13;;;;;;;5.85;5.20;;;;;;;31.05;37.56;97251.91;5044458;28;20553;-64
2022/07/03 08:31:40;;;;;;;8.57;5.68;;;;;;;31.50;37.43;97256.84;5042455;28;20061;-70
2022/07/03 08:34:08;;;;;;;5.63;5.13;;;;;;;31.72;37.79;97262.81;5042605;28;20053;-70
2022/07/03 08:36:35;;;;;;;5.97;5.47;;;;;;;31.90;37.71;97268.25;5045859;28;20045;-64
2022/07/03 08:39:02;;;;;;;6.90;5.53;;;;;;;32.22;37.20;97266.94;5048246;28;20045;-74
2022/07/03 08:41:32;;;;;;;7.35;6.00;;;;;;;32.23;37.91;97228.38;5047369;28;20049;-73
2022/07/03 08:44:00;;;;;;;6.25;5.65;;;;;;;32.50;37.36;97270.81;5046842;28;20061;-66
2022/07/03 08:46:30;;;;;;;7.68;5.72;;;;;;;31.67;37.14;97157.53;5048293;28;20049;-66
2022/07/03 08:49:00;;;;;;;6.97;6.05;;;;;;;32.06;37.60;97264.72;5048872;28;20057;-74
2022/07/03 08:51:27;;;;;;;11.77;5.78;;;;;;;31.86;37.37;97234.06;5048039;28;20053;-73
2022/07/03 08:53:54;;;;;;;6.05;5.53;;;;;;;32.20;37.17;97235.13;5046942;28;20057;-65
2022/07/03 08:56:23;;;;;;;6.93;6.22;;;;;;;32.13;37.97;97204.03;5047879;28;20060;-65
2022/07/03 08:58:49;;;;;;;6.38;5.68;;;;;;;32.47;37.25;97268.97;5048010;28;20053;-72
2022/07/03 09:01:18;;;;;;;6.45;5.85;;;;;;;31.99;38.21;97247.97;5048270;28;20033;-74
2022/07/03 09:03:45;;;;;;;5.82;5.32;;;;;;;32.61;37.68;97259.44;5048200;28;20079;-74
2022/07/03 09:06:13;;;;;;;6.95;6.25;;;;;;;32.18;38.20;97275.00;5046613;28;20049;-73
2022/07/03 09:08:40;;;;;;;6.20;5.60;;;;;;;31.53;37.72;97216.53;5055288;28;20052;-65
2022/07/03 09:11:07;;;;;;;7.22;6.60;;;;;;;30.51;38.93;97161.94;5066676;28;20060;-65
2022/07/03 09:13:34;;;;;;;6.68;6.00;;;;;;;30.87;39.30;97233.69;5066239;28;20083;-75
2022/07/03 09:16:01;;;;;;;6.07;5.35;;;;;;;31.91;38.18;97262.00;5067137;28;20071;-73
2022/07/03 09:18:43;;;;;;;11.55;5.68;;;;;;;32.76;37.80;97260.03;5066573;28;20071;-64
2022/07/03 09:21:10;;;;;;;6.72;6.07;;;;;;;32.79;36.77;97218.81;5066034;28;20048;-67
2022/07/03 09:23:39;;;;;;;6.93;5.57;;;;;;;32.51;37.00;97260.94;5067202;28;20118;-66
2022/07/03 09:26:11;;;;;;;6.18;5.57;;;;;;;32.55;36.05;97209.06;5067571;28;20537;-65
2022/07/03 09:28:46;;;;;;;5.70;5.22;;;;;;;33.06;35.94;97267.00;5067646;28;20460;-65
2022/07/03 09:31:16;;;;;;;6.68;5.75;;;;;;;33.18;35.45;97262.88;5067453;28;20048;-66
2022/07/03 09:33:54;;;;;;;10.75;7.55;;;;;;;32.85;36.19;97261.91;5067491;28;20592;-65
2022/07/03 09:36:22;;;;;;;6.68;5.40;;;;;;;31.54;37.15;97263.94;5066208;28;20067;-64
2022/07/03 09:38:49;;;;;;;8.52;6.30;;;;;;;31.94;36.65;97257.31;5067608;28;20056;-67
2022/07/03 09:41:16;;;;;;;6.78;6.07;;;;;;;32.15;36.94;97221.53;5067586;28;20580;-74
2022/07/03 09:43:44;;;;;;;8.10;5.40;;;;;;;33.05;35.55;97253.16;5067284;28;20045;-73
2022/07/03 09:46:11;;;;;;;5.80;5.28;;;;;;;33.49;34.82;97256.22;5067022;28;20055;-66
2022/07/03 09:48:41;;;;;;;6.18;5.68;;;;;;;33.80;34.16;97220.75;5067229;28;20578;-65
2022/07/03 09:51:09;;;;;;;8.55;7.70;;;;;;;34.05;34.83;97237.75;5065521;28;20473;-74
2022/07/03 09:53:58;;;;;;;6.95;6.10;;;;;;;34.32;34.67;97233.31;5067182;28;20064;-67
2022/07/03 09:56:28;;;;;;;8.73;7.22;;;;;;;34.57;34.33;97238.78;5067186;28;20056;-72
2022/07/03 09:59:13;;;;;;;7.35;5.72;;;;;;;33.29;34.79;97234.19;5065493;28;20076;-72
2022/07/03 10:01:42;;;;;;;7.43;6.72;;;;;;;32.27;35.64;97171.56;5066762;28;20053;-73
2022/07/03 10:04:16;;;;;;;11.15;6.82;;;;;;;32.74;36.18;97231.06;5067181;28;20093;-65
2022/07/03 10:06:47;;;;;;;7.07;6.43;;;;;;;31.99;36.63;97231.59;5067292;28;20056;-66
2022/07/03 10:09:16;;;;;;;6.50;6.00;;;;;;;32.32;36.56;97231.03;5053019;28;20102;-75
2022/07/03 10:11:44;;;;;;;8.40;6.10;;;;;;;32.33;35.98;97143.69;5046321;28;20067;-73
2022/07/03 10:14:14;;;;;;;6.63;6.03;;;;;;;32.93;35.94;97157.56;5045434;28;20057;-73
2022/07/03 10:16:42;;;;;;;6.78;6.07;;;;;;;34.09;34.93;97215.28;5045178;28;20539;-74
2022/07/03 10:19:22;;;;;;;7.88;6.88;;;;;;;34.26;34.14;97218.91;5044920;28;20126;-68
2022/07/03 10:21:54;;;;;;;8.57;6.30;;;;;;;34.39;34.20;97215.53;5046180;28;20442;-73
2022/07/03 10:24:27;;;;;;;12.02;9.00;;;;;;;34.47;33.69;97136.00;5048073;28;20052;-73
2022/07/03 10:26:55;;;;;;;6.65;6.00;;;;;;;34.79;32.64;97117.03;5045695;28;20055;-73
2022/07/03 10:29:24;;;;;;;8.02;7.28;;;;;;;35.53;33.03;97201.25;5046500;28;20053;-73
2022/07/03 10:31:56;;;;;;;9.13;7.32;;;;;;;35.41;32.42;97150.75;5046557;28;20565;-72
2022/07/03 10:34:28;;;;;;;8.13;6.38;;;;;;;35.96;31.83;97196.53;5046222;28;20144;-72
2022/07/03 10:37:02;;;;;;;7.57;6.88;;;;;;;35.90;32.42;97197.88;5044616;28;20049;-68
2022/07/03 10:46:09;;;;;;;7.15;5.93;;;;;;;34.71;33.97;97180.16;5045938;28;20057;-64
2022/07/03 10:48:56;;;;;;;7.18;6.47;;;;;;;34.50;33.62;97180.97;5044590;28;20045;-76
2022/07/03 10:51:24;;;;;;;8.85;5.95;;;;;;;35.08;33.00;97179.72;5046418;28;20470;-75
2022/07/03 10:54:12;;;;;;;6.80;6.10;;;;;;;35.43;31.65;97130.03;5048071;28;20053;-73
2022/07/03 10:56:57;;;;;;;6.55;6.00;;;;;;;36.14;32.46;97183.47;5048469;28;20083;-64
2022/07/03 10:59:36;;;;;;;7.00;6.40;;;;;;;34.83;33.36;97180.88;5044968;28;20053;-65
2022/07/03 11:02:32;;;;;;;7.18;6.50;;;;;;;33.68;35.22;97174.75;5044229;28;20057;-77
2022/07/03 11:04:59;;;;;;;7.05;6.45;;;;;;;34.79;33.63;97174.59;5044501;28;20851;-75
2022/07/03 11:07:42;;;;;;;6.72;6.22;;;;;;;35.10;33.06;97157.75;5044251;28;20064;-64
2022/07/03 11:10:09;;;;;;;8.43;7.70;;;;;;;34.74;34.46;97166.78;5024236;28;20057;-75
2022/07/03 11:12:57;;;;;;;8.35;7.22;;;;;;;35.54;33.29;97158.78;5025889;28;20064;-76
2022/07/03 11:15:47;;;;;;;8.77;7.88;;;;;;;35.12;33.36;97162.97;5025264;28;20500;-76
2022/07/03 11:18:18;;;;;;;12.60;8.45;;;;;;;35.08;33.22;97159.56;5018565;28;20516;-66
2022/07/03 11:20:45;;;;;;;7.60;5.68;;;;;;;35.27;32.92;97157.63;5025686;28;20099;-65
2022/07/03 11:23:27;;;;;;;7.07;6.53;;;;;;;35.57;32.71;97158.50;5025682;28;20057;-65
2022/07/03 11:25:59;;;;;;;9.68;7.43;;;;;;;35.11;33.11;97146.97;5024009;28;20517;-65
2022/07/03 11:28:52;;;;;;;9.60;6.30;;;;;;;35.01;32.81;97099.66;5026048;28;20049;-78
2022/07/03 11:31:22;;;;;;;11.43;7.78;;;;;;;34.33;33.72;97165.81;5022252;28;20053;-77
2022/07/03 11:33:55;;;;;;;7.82;7.03;;;;;;;34.39;34.13;97153.03;5025251;28;20054;-68
2022/07/03 11:36:22;;;;;;;8.30;7.30;;;;;;;34.62;33.20;97148.00;5026041;28;20448;-77
2022/07/03 11:38:55;;;;;;;7.95;7.15;;;;;;;34.76;32.98;97152.63;5031015;28;20053;-65
2022/07/03 11:41:22;;;;;;;6.72;6.00;;;;;;;35.00;32.19;97121.13;5025749;28;20080;-75
2022/07/03 11:43:55;;;;;;;8.98;6.40;;;;;;;35.22;32.00;97123.84;5027961;28;20454;-75
2022/07/03 11:46:22;;;;;;;14.57;10.30;;;;;;;35.46;32.32;97135.53;5025355;28;20057;-74
2022/07/03 11:48:50;;;;;;;15.65;8.82;;;;;;;35.42;32.76;97135.03;5023527;28;20175;-77
2022/07/03 11:51:16;;;;;;;6.55;6.05;;;;;;;34.56;32.87;97138.56;5024953;28;20068;-63
2022/07/03 11:53:43;;;;;;;8.50;6.65;;;;;;;33.54;34.32;97049.31;5023368;28;20508;-76
2022/07/03 11:56:12;;;;;;;7.90;7.00;;;;;;;33.89;34.19;97045.09;5024257;28;20060;-66
2022/07/03 11:58:51;;;;;;;9.93;7.85;;;;;;;34.32;34.67;97130.50;5024880;28;20055;-64
2022/07/03 12:01:26;;;;;;;7.93;7.22;;;;;;;34.23;34.89;97138.63;5024974;28;20524;-74